CGFWN CYQR-CJS4
Flight info
| Callsign | CGFWN |
|---|---|
| Flight time | 0h 17m |
| Altitude | 4500 |
| Route | CJS4 |
| Aircraft | C172/L-SFG/C |
Departure
| Time | 2026-05-06 02:33 |
|---|---|
| Airport | Regina International Airport (CYQR) |
Arrival
| Time | 2026-05-06 02:50 |
|---|---|
| Airport | Moose Jaw Municipal Airport (CJS4) |
| Time | Latitude | Longitude | Altitude | Speed | Heading |
|---|---|---|---|---|---|
| 2026-05-06 02:11 | 50.43733 | -104.65313 | 1890 ft | 0 kts | 116° |
| 2026-05-06 02:19 | 50.43743 | -104.65310 | 1890 ft | 4 kts | 291° |
| 2026-05-06 02:19 | 50.43748 | -104.65326 | 1887 ft | 0 kts | 307° |
| 2026-05-06 02:19 | 50.43748 | -104.65327 | 1887 ft | 1 kts | 306° |
| 2026-05-06 02:20 | 50.43814 | -104.65382 | 1889 ft | 5 kts | 304° |
| 2026-05-06 02:20 | 50.43830 | -104.65410 | 1887 ft | 0 kts | 335° |
| 2026-05-06 02:24 | 50.43831 | -104.65411 | 1889 ft | 1 kts | 332° |
| 2026-05-06 02:24 | 50.43815 | -104.65434 | 1884 ft | 8 kts | 141° |
| 2026-05-06 02:25 | 50.43787 | -104.65405 | 1889 ft | 2 kts | 144° |
| 2026-05-06 02:25 | 50.43771 | -104.65399 | 1889 ft | 4 kts | 214° |
| 2026-05-06 02:25 | 50.43768 | -104.65490 | 1888 ft | 13 kts | 268° |
| 2026-05-06 02:25 | 50.43769 | -104.65662 | 1889 ft | 16 kts | 269° |
| 2026-05-06 02:26 | 50.43769 | -104.65840 | 1890 ft | 16 kts | 276° |
| 2026-05-06 02:26 | 50.43764 | -104.65988 | 1891 ft | 11 kts | 243° |
| 2026-05-06 02:26 | 50.43719 | -104.66068 | 1892 ft | 8 kts | 229° |
| 2026-05-06 02:26 | 50.43685 | -104.66126 | 1886 ft | 6 kts | 231° |
| 2026-05-06 02:27 | 50.43661 | -104.66167 | 1891 ft | 4 kts | 230° |
| 2026-05-06 02:27 | 50.43653 | -104.66181 | 1889 ft | 0 kts | 227° |
| 2026-05-06 02:27 | 50.43645 | -104.66193 | 1885 ft | 5 kts | 226° |
| 2026-05-06 02:27 | 50.43619 | -104.66239 | 1891 ft | 6 kts | 225° |
| 2026-05-06 02:28 | 50.43578 | -104.66245 | 1893 ft | 8 kts | 157° |
| 2026-05-06 02:28 | 50.43521 | -104.66164 | 1890 ft | 13 kts | 137° |
| 2026-05-06 02:28 | 50.43455 | -104.66071 | 1888 ft | 13 kts | 138° |
| 2026-05-06 02:28 | 50.43380 | -104.65968 | 1891 ft | 15 kts | 141° |
| 2026-05-06 02:29 | 50.43303 | -104.65859 | 1892 ft | 15 kts | 137° |
| 2026-05-06 02:29 | 50.43224 | -104.65748 | 1891 ft | 16 kts | 141° |
| 2026-05-06 02:29 | 50.43147 | -104.65638 | 1897 ft | 14 kts | 134° |
| 2026-05-06 02:29 | 50.43094 | -104.65588 | 1896 ft | 8 kts | 188° |
| 2026-05-06 02:30 | 50.43048 | -104.65622 | 1892 ft | 7 kts | 208° |
| 2026-05-06 02:30 | 50.43038 | -104.65629 | 1896 ft | 0 kts | 204° |
| 2026-05-06 02:31 | 50.43036 | -104.65631 | 1896 ft | 1 kts | 210° |
| 2026-05-06 02:31 | 50.43025 | -104.65640 | 1896 ft | 5 kts | 205° |
| 2026-05-06 02:32 | 50.42978 | -104.65678 | 1893 ft | 9 kts | 210° |
| 2026-05-06 02:32 | 50.42961 | -104.65735 | 1899 ft | 4 kts | 288° |
| 2026-05-06 02:32 | 50.42980 | -104.65770 | 1895 ft | 4 kts | 316° |
| 2026-05-06 02:32 | 50.43014 | -104.65819 | 1900 ft | 21 kts | 322° |
| 2026-05-06 02:33 | 50.43254 | -104.66150 | 1896 ft | 67 kts | 322° |
| 2026-05-06 02:33 | 50.43491 | -104.66523 | 1967 ft | 76 kts | 320° |
| 2026-05-06 02:33 | 50.44172 | -104.68089 | 2526 ft | 81 kts | 288° |
| 2026-05-06 02:34 | 50.44182 | -104.68938 | 2783 ft | 77 kts | 286° |
| 2026-05-06 02:34 | 50.44183 | -104.69802 | 2976 ft | 81 kts | 286° |
| 2026-05-06 02:34 | 50.44083 | -104.70685 | 3195 ft | 91 kts | 258° |
| 2026-05-06 02:34 | 50.43792 | -104.71540 | 3431 ft | 86 kts | 257° |
| 2026-05-06 02:35 | 50.43510 | -104.72394 | 3580 ft | 87 kts | 264° |
| 2026-05-06 02:35 | 50.43281 | -104.73262 | 3769 ft | 88 kts | 262° |
| 2026-05-06 02:35 | 50.43077 | -104.74119 | 4025 ft | 79 kts | 265° |
| 2026-05-06 02:35 | 50.42857 | -104.74930 | 4185 ft | 82 kts | 262° |
| 2026-05-06 02:36 | 50.42631 | -104.75715 | 4372 ft | 80 kts | 257° |
| 2026-05-06 02:36 | 50.42400 | -104.76520 | 4509 ft | 81 kts | 264° |
| 2026-05-06 02:36 | 50.42181 | -104.77498 | 4521 ft | 96 kts | 263° |
| 2026-05-06 02:36 | 50.41986 | -104.78561 | 4502 ft | 104 kts | 270° |
| 2026-05-06 02:37 | 50.41893 | -104.79698 | 4511 ft | 108 kts | 278° |
| 2026-05-06 02:37 | 50.41880 | -104.80862 | 4490 ft | 112 kts | 281° |
| 2026-05-06 02:37 | 50.41948 | -104.82085 | 4444 ft | 108 kts | 286° |
| 2026-05-06 02:37 | 50.41949 | -104.83264 | 4476 ft | 101 kts | 280° |
| 2026-05-06 02:38 | 50.41973 | -104.84363 | 4497 ft | 102 kts | 285° |
| 2026-05-06 02:38 | 50.42013 | -104.85480 | 4519 ft | 105 kts | 284° |
| 2026-05-06 02:38 | 50.42057 | -104.86635 | 4534 ft | 107 kts | 285° |
| 2026-05-06 02:38 | 50.42089 | -104.87820 | 4549 ft | 110 kts | 281° |
| 2026-05-06 02:39 | 50.42126 | -104.89015 | 4531 ft | 109 kts | 286° |
| 2026-05-06 02:39 | 50.42248 | -104.90166 | 4492 ft | 109 kts | 295° |
| 2026-05-06 02:39 | 50.42425 | -104.91295 | 4515 ft | 107 kts | 290° |
| 2026-05-06 02:39 | 50.42509 | -104.92472 | 4498 ft | 108 kts | 290° |
| 2026-05-06 02:40 | 50.42614 | -104.93641 | 4480 ft | 108 kts | 291° |
| 2026-05-06 02:40 | 50.42776 | -104.94766 | 4513 ft | 103 kts | 293° |
| 2026-05-06 02:40 | 50.42850 | -104.95896 | 4505 ft | 106 kts | 287° |
| 2026-05-06 02:40 | 50.42920 | -104.97043 | 4499 ft | 108 kts | 281° |
| 2026-05-06 02:41 | 50.42873 | -104.98211 | 4558 ft | 104 kts | 281° |
| 2026-05-06 02:41 | 50.42931 | -104.99314 | 4592 ft | 102 kts | 288° |
| 2026-05-06 02:41 | 50.42953 | -105.00478 | 4586 ft | 110 kts | 283° |
| 2026-05-06 02:41 | 50.42999 | -105.01670 | 4576 ft | 109 kts | 289° |
| 2026-05-06 02:42 | 50.43078 | -105.02869 | 4576 ft | 108 kts | 288° |
| 2026-05-06 02:42 | 50.43103 | -105.04061 | 4550 ft | 112 kts | 282° |
| 2026-05-06 02:42 | 50.43081 | -105.05279 | 4531 ft | 112 kts | 278° |
| 2026-05-06 02:42 | 50.43055 | -105.06462 | 4604 ft | 106 kts | 282° |
| 2026-05-06 02:43 | 50.43120 | -105.07603 | 4628 ft | 103 kts | 290° |
| 2026-05-06 02:43 | 50.43218 | -105.08713 | 4667 ft | 104 kts | 285° |
| 2026-05-06 02:43 | 50.43275 | -105.09853 | 4644 ft | 107 kts | 287° |
| 2026-05-06 02:43 | 50.43243 | -105.11060 | 4614 ft | 112 kts | 274° |
| 2026-05-06 02:44 | 50.43142 | -105.12284 | 4598 ft | 111 kts | 278° |
| 2026-05-06 02:44 | 50.43176 | -105.13460 | 4558 ft | 110 kts | 292° |
| 2026-05-06 02:44 | 50.43309 | -105.14639 | 4574 ft | 109 kts | 289° |
| 2026-05-06 02:44 | 50.43408 | -105.15834 | 4550 ft | 111 kts | 289° |
| 2026-05-06 02:45 | 50.43485 | -105.17050 | 4547 ft | 111 kts | 288° |
| 2026-05-06 02:45 | 50.43541 | -105.18244 | 4550 ft | 112 kts | 282° |
| 2026-05-06 02:45 | 50.43525 | -105.19461 | 4570 ft | 110 kts | 280° |
| 2026-05-06 02:45 | 50.43552 | -105.20681 | 4512 ft | 112 kts | 287° |
| 2026-05-06 02:46 | 50.43650 | -105.21869 | 4350 ft | 110 kts | 290° |
| 2026-05-06 02:46 | 50.43775 | -105.23014 | 4247 ft | 106 kts | 288° |
| 2026-05-06 02:46 | 50.43823 | -105.24193 | 4022 ft | 115 kts | 281° |
| 2026-05-06 02:46 | 50.43775 | -105.25450 | 3877 ft | 113 kts | 278° |
| 2026-05-06 02:47 | 50.43686 | -105.26676 | 3769 ft | 112 kts | 274° |
| 2026-05-06 02:47 | 50.43570 | -105.27902 | 3597 ft | 116 kts | 269° |
| 2026-05-06 02:47 | 50.43316 | -105.29136 | 3418 ft | 119 kts | 267° |
| 2026-05-06 02:47 | 50.43188 | -105.30403 | 3284 ft | 118 kts | 274° |
| 2026-05-06 02:48 | 50.43068 | -105.31684 | 3181 ft | 120 kts | 262° |
| 2026-05-06 02:48 | 50.42612 | -105.32833 | 2996 ft | 128 kts | 234° |
| 2026-05-06 02:48 | 50.41947 | -105.33714 | 2961 ft | 113 kts | 226° |
| 2026-05-06 02:48 | 50.41471 | -105.34487 | 2905 ft | 94 kts | 249° |
| 2026-05-06 02:49 | 50.41344 | -105.35360 | 2653 ft | 79 kts | 291° |
| 2026-05-06 02:49 | 50.41612 | -105.35990 | 2393 ft | 69 kts | 329° |
| 2026-05-06 02:49 | 50.41998 | -105.36535 | 2224 ft | 71 kts | 324° |
| 2026-05-06 02:49 | 50.42345 | -105.37068 | 2110 ft | 66 kts | 328° |
| 2026-05-06 02:50 | 50.42661 | -105.37529 | 2010 ft | 62 kts | 309° |
| 2026-05-06 02:50 | 50.42932 | -105.38003 | 1933 ft | 64 kts | 312° |
| 2026-05-06 02:50 | 50.43254 | -105.38437 | 1901 ft | 58 kts | 307° |
| 2026-05-06 02:50 | 50.43463 | -105.38752 | 1898 ft | 24 kts | 314° |
| 2026-05-06 02:51 | 50.43483 | -105.38789 | 1889 ft | 0 kts | 308° |
| 2026-05-06 02:51 | 50.43484 | -105.38790 | 1889 ft | 2 kts | 322° |
| 2026-05-06 02:51 | 50.43464 | -105.38741 | 1893 ft | 13 kts | 141° |
| 2026-05-06 02:52 | 50.43380 | -105.38609 | 1895 ft | 21 kts | 139° |
| 2026-05-06 02:52 | 50.43342 | -105.38564 | 1890 ft | 3 kts | 336° |
| 2026-05-06 02:52 | 50.43346 | -105.38570 | 1896 ft | 0 kts | 314° |
| 2026-05-06 02:53 | 50.43387 | -105.38635 | 1892 ft | 29 kts | 317° |
| 2026-05-06 02:53 | 50.43644 | -105.38994 | 1909 ft | 66 kts | 327° |
| 2026-05-06 02:53 | 50.43954 | -105.39644 | 2054 ft | 76 kts | 310° |
| 2026-05-06 02:53 | 50.44161 | -105.40410 | 2255 ft | 82 kts | 285° |
| 2026-05-06 02:54 | 50.43813 | -105.41172 | 2379 ft | 102 kts | 196° |
| 2026-05-06 02:54 | 50.43176 | -105.40787 | 2659 ft | 89 kts | 147° |
| 2026-05-06 02:54 | 50.42698 | -105.40100 | 2799 ft | 91 kts | 112° |
| 2026-05-06 02:54 | 50.42497 | -105.39220 | 3066 ft | 80 kts | 95° |
| 2026-05-06 02:55 | 50.42390 | -105.38354 | 3231 ft | 82 kts | 95° |
| 2026-05-06 02:55 | 50.42318 | -105.37457 | 3437 ft | 77 kts | 92° |
| 2026-05-06 02:55 | 50.42214 | -105.36570 | 3538 ft | 87 kts | 98° |
| 2026-05-06 02:55 | 50.42084 | -105.35604 | 3554 ft | 102 kts | 91° |
| 2026-05-06 02:56 | 50.42044 | -105.34488 | 3596 ft | 104 kts | 95° |
| 2026-05-06 02:56 | 50.41856 | -105.33336 | 3575 ft | 113 kts | 107° |
| 2026-05-06 02:56 | 50.41589 | -105.32141 | 3559 ft | 118 kts | 108° |
| 2026-05-06 02:56 | 50.41304 | -105.30962 | 3611 ft | 116 kts | 107° |
| 2026-05-06 02:57 | 50.41096 | -105.29766 | 3604 ft | 113 kts | 84° |
| 2026-05-06 02:57 | 50.41167 | -105.28564 | 3616 ft | 110 kts | 74° |
| 2026-05-06 02:57 | 50.41301 | -105.27375 | 3629 ft | 109 kts | 73° |
| 2026-05-06 02:57 | 50.41440 | -105.26194 | 3600 ft | 112 kts | 75° |
| 2026-05-06 02:58 | 50.41523 | -105.25000 | 3642 ft | 109 kts | 76° |
| 2026-05-06 02:58 | 50.41628 | -105.23813 | 3608 ft | 113 kts | 75° |
| 2026-05-06 02:58 | 50.41671 | -105.22587 | 3621 ft | 114 kts | 86° |
| 2026-05-06 02:58 | 50.41602 | -105.21339 | 3607 ft | 113 kts | 86° |
| 2026-05-06 02:59 | 50.41578 | -105.20121 | 3597 ft | 113 kts | 85° |
| 2026-05-06 02:59 | 50.41594 | -105.18890 | 3576 ft | 111 kts | 79° |
| 2026-05-06 02:59 | 50.41677 | -105.17698 | 3555 ft | 111 kts | 77° |
| 2026-05-06 02:59 | 50.41731 | -105.16481 | 3523 ft | 112 kts | 81° |
| 2026-05-06 03:00 | 50.41736 | -105.15272 | 3530 ft | 109 kts | 84° |
| 2026-05-06 03:00 | 50.41721 | -105.14093 | 3505 ft | 111 kts | 86° |
| 2026-05-06 03:00 | 50.41680 | -105.12914 | 3568 ft | 109 kts | 86° |
| 2026-05-06 03:00 | 50.41614 | -105.11714 | 3575 ft | 111 kts | 89° |
| 2026-05-06 03:01 | 50.41560 | -105.10496 | 3568 ft | 112 kts | 84° |
| 2026-05-06 03:01 | 50.41574 | -105.09271 | 3585 ft | 111 kts | 83° |
| 2026-05-06 03:01 | 50.41554 | -105.08077 | 3627 ft | 110 kts | 87° |
| 2026-05-06 03:01 | 50.41502 | -105.06876 | 3604 ft | 113 kts | 88° |
| 2026-05-06 03:02 | 50.41462 | -105.05650 | 3617 ft | 111 kts | 85° |
| 2026-05-06 03:02 | 50.41424 | -105.04426 | 3605 ft | 114 kts | 87° |
| 2026-05-06 03:02 | 50.41369 | -105.03194 | 3645 ft | 112 kts | 88° |
| 2026-05-06 03:02 | 50.41330 | -105.02385 | 3657 ft | 112 kts | 88° |
| 2026-05-06 03:03 | 50.41278 | -105.01167 | 3672 ft | 112 kts | 87° |
| 2026-05-06 03:03 | 50.41240 | -104.99560 | 3636 ft | 110 kts | 84° |
| 2026-05-06 03:03 | 50.41244 | -104.98747 | 3616 ft | 111 kts | 82° |
| 2026-05-06 03:03 | 50.41283 | -104.97517 | 3587 ft | 115 kts | 81° |
| 2026-05-06 03:04 | 50.41291 | -104.96258 | 3579 ft | 117 kts | 86° |
| 2026-05-06 03:04 | 50.41257 | -104.94991 | 3525 ft | 120 kts | 82° |
| 2026-05-06 03:04 | 50.41307 | -104.93745 | 3517 ft | 112 kts | 82° |
| 2026-05-06 03:04 | 50.41293 | -104.92534 | 3486 ft | 110 kts | 88° |
| 2026-05-06 03:05 | 50.41234 | -104.91314 | 3428 ft | 112 kts | 90° |
| 2026-05-06 03:05 | 50.41143 | -104.90089 | 3277 ft | 115 kts | 90° |
| 2026-05-06 03:05 | 50.41154 | -104.88879 | 3184 ft | 111 kts | 82° |
| 2026-05-06 03:05 | 50.41173 | -104.87666 | 3070 ft | 111 kts | 84° |
| 2026-05-06 03:06 | 50.41140 | -104.86446 | 3007 ft | 113 kts | 88° |
| 2026-05-06 03:06 | 50.41075 | -104.85232 | 3016 ft | 109 kts | 89° |
| 2026-05-06 03:06 | 50.41001 | -104.84068 | 3005 ft | 108 kts | 88° |
| 2026-05-06 03:06 | 50.41079 | -104.82918 | 2947 ft | 105 kts | 69° |
| 2026-05-06 03:07 | 50.41333 | -104.81845 | 2894 ft | 105 kts | 64° |
| 2026-05-06 03:07 | 50.41584 | -104.80773 | 2900 ft | 106 kts | 65° |
| 2026-05-06 03:07 | 50.41883 | -104.79730 | 2893 ft | 104 kts | 57° |
| 2026-05-06 03:07 | 50.42212 | -104.78713 | 2883 ft | 105 kts | 60° |
| 2026-05-06 03:08 | 50.42483 | -104.77682 | 2845 ft | 94 kts | 66° |
| 2026-05-06 03:08 | 50.42618 | -104.76778 | 2861 ft | 78 kts | 73° |
| 2026-05-06 03:08 | 50.42774 | -104.75956 | 2725 ft | 78 kts | 63° |
| 2026-05-06 03:08 | 50.42902 | -104.75139 | 2669 ft | 78 kts | 81° |
| 2026-05-06 03:09 | 50.42878 | -104.74251 | 2555 ft | 81 kts | 84° |
| 2026-05-06 03:09 | 50.42913 | -104.73390 | 2512 ft | 79 kts | 82° |
| 2026-05-06 03:09 | 50.42893 | -104.72516 | 2444 ft | 81 kts | 85° |
| 2026-05-06 03:09 | 50.42892 | -104.71652 | 2391 ft | 79 kts | 81° |
| 2026-05-06 03:10 | 50.42934 | -104.70779 | 2321 ft | 82 kts | 93° |
| 2026-05-06 03:10 | 50.42888 | -104.69970 | 2285 ft | 65 kts | 65° |
| 2026-05-06 03:10 | 50.42912 | -104.69282 | 2131 ft | 66 kts | 75° |
| 2026-05-06 03:10 | 50.42910 | -104.68580 | 1979 ft | 67 kts | 78° |
| 2026-05-06 03:11 | 50.42910 | -104.67874 | 1910 ft | 55 kts | 81° |
| 2026-05-06 03:11 | 50.42905 | -104.67457 | 1898 ft | 18 kts | 93° |
| 2026-05-06 03:11 | 50.42887 | -104.67243 | 1893 ft | 26 kts | 90° |
| 2026-05-06 03:11 | 50.42935 | -104.67040 | 1890 ft | 16 kts | 72° |